createdAt,value
2022-08-24T00:01:08.975Z,99103.88
2022-08-24T00:06:19.645Z,99099.78
2022-08-24T00:11:24.951Z,99109.03
2022-08-24T00:16:30.160Z,99098.66
2022-08-24T00:21:40.014Z,99102.56
2022-08-24T00:26:46.115Z,99112.22
2022-08-24T00:31:51.280Z,99107.44
2022-08-24T00:36:58.984Z,99102.13
2022-08-24T00:42:04.036Z,99107.63
2022-08-24T00:47:19.869Z,99104.31
2022-08-24T00:52:33.507Z,99093.78
2022-08-24T00:57:44.209Z,99097.31
2022-08-24T01:02:53.510Z,99102.47
2022-08-24T01:08:01.513Z,99099.44
2022-08-24T01:13:09.850Z,99104.41
2022-08-24T01:18:31.552Z,99106.56
2022-08-24T01:23:44.078Z,99107.19
2022-08-24T01:28:53.267Z,99109.72
2022-08-24T01:33:59.036Z,99113.28
2022-08-24T01:39:12.825Z,99107.69
2022-08-24T01:44:17.943Z,99099.69
2022-08-24T01:49:24.757Z,99093.09
2022-08-24T01:54:32.341Z,99096.47
2022-08-24T01:59:37.591Z,99095.25
2022-08-24T02:04:44.258Z,99097.97
2022-08-24T02:09:53.422Z,99094.63
2022-08-24T02:14:58.640Z,99082.31
2022-08-24T02:20:03.877Z,99090.28
2022-08-24T02:25:12.070Z,99090.56
2022-08-24T02:30:20.713Z,99085.41
2022-08-24T02:35:26.070Z,99087.31
2022-08-24T02:40:33.903Z,99086.63
2022-08-24T02:45:42.499Z,99083.63
2022-08-24T02:50:51.373Z,99085.34
2022-08-24T02:55:59.314Z,99093.66
2022-08-24T03:01:05.496Z,99106.53
2022-08-24T03:06:23.096Z,99104.34
2022-08-24T03:11:30.813Z,99110.06
2022-08-24T03:16:36.829Z,99116.28
2022-08-24T03:21:41.889Z,99108.66
2022-08-24T03:26:49.576Z,99131.94
2022-08-24T03:31:54.635Z,99125.34
2022-08-24T03:37:00.612Z,99122.66
2022-08-24T03:42:09.554Z,99126.94
2022-08-24T03:47:14.527Z,99127.50
2022-08-24T03:52:20.190Z,99134.66
2022-08-24T03:57:32.277Z,99144.75
2022-08-24T04:02:37.692Z,99146.63
2022-08-24T04:07:43.267Z,99143.41
2022-08-24T04:12:51.506Z,99135.25
2022-08-24T04:18:00.140Z,99145.41
2022-08-24T04:23:16.343Z,99139.03
2022-08-24T04:28:27.071Z,99142.97
2022-08-24T04:33:32.076Z,99142.28
2022-08-24T04:38:37.110Z,99140.13
2022-08-24T04:44:08.607Z,99131.03
2022-08-24T04:49:14.124Z,99135.03
2022-08-24T04:54:21.524Z,99147.88
2022-08-24T04:59:41.337Z,99161.00
2022-08-24T05:04:47.086Z,99165.63
2022-08-24T05:09:52.330Z,99161.78
2022-08-24T05:15:03.326Z,99167.16
2022-08-24T05:20:14.580Z,99175.44
2022-08-24T05:25:20.073Z,99175.50
2022-08-24T05:30:27.622Z,99180.53
2022-08-24T05:35:33.160Z,99186.53
2022-08-24T05:40:42.348Z,99180.94
2022-08-24T05:45:50.762Z,99186.00
2022-08-24T05:50:56.568Z,99180.53
2022-08-24T05:56:06.935Z,99180.53
2022-08-24T06:01:18.561Z,99183.44
2022-08-24T06:06:25.281Z,99184.44
2022-08-24T06:11:32.281Z,99187.34
2022-08-24T06:16:45.328Z,99196.47
2022-08-24T06:21:52.952Z,99194.28
2022-08-24T06:27:10.527Z,99189.09
2022-08-24T06:32:18.118Z,99188.91
2022-08-24T06:37:26.662Z,99191.94
2022-08-24T06:42:35.208Z,99197.13
2022-08-24T06:47:59.227Z,99206.69
2022-08-24T06:53:06.120Z,99224.31
2022-08-24T06:58:11.607Z,99221.06
2022-08-24T07:03:21.105Z,99215.50
2022-08-24T07:08:34.461Z,99229.97
2022-08-24T07:13:40.230Z,99228.47
2022-08-24T07:18:49.797Z,99219.47
2022-08-24T07:24:01.281Z,99225.72
2022-08-24T07:29:36.817Z,99229.13
2022-08-24T07:34:46.535Z,99227.44
2022-08-24T07:39:51.589Z,99225.41
2022-08-24T07:44:57.579Z,99230.22
2022-08-24T07:50:05.887Z,99235.06
2022-08-24T07:55:12.636Z,99242.28
2022-08-24T08:00:20.734Z,99246.22
2022-08-24T08:05:34.241Z,99246.69
2022-08-24T08:10:40.796Z,99246.06
2022-08-24T08:15:46.220Z,99254.44
2022-08-24T08:20:54.937Z,99254.44
2022-08-24T08:26:02.001Z,99247.88
2022-08-24T08:31:22.165Z,99245.56
2022-08-24T08:36:31.585Z,99247.53
2022-08-24T08:42:15.187Z,99250.19
2022-08-24T08:47:52.443Z,99253.03
2022-08-24T08:53:25.051Z,99247.00
2022-08-24T08:58:57.527Z,99253.06
2022-08-24T09:04:55.654Z,99262.84
2022-08-24T09:10:29.070Z,99257.84
2022-08-24T09:15:51.229Z,99269.16
2022-08-24T09:21:18.645Z,99264.91
2022-08-24T09:26:29.925Z,99261.16
2022-08-24T09:31:51.800Z,99259.22
2022-08-24T09:37:05.089Z,99265.28
2022-08-24T09:42:48.574Z,99255.66
2022-08-24T09:48:16.886Z,99255.91
2022-08-24T09:53:58.253Z,99249.19
2022-08-24T09:59:21.341Z,99239.41
2022-08-24T10:04:38.746Z,99238.72
2022-08-24T10:10:20.478Z,99241.19
2022-08-24T10:15:32.698Z,99240.00
2022-08-24T10:20:55.533Z,99237.00
2022-08-24T10:26:07.781Z,99239.66
2022-08-24T10:31:15.012Z,99236.78
2022-08-24T10:36:50.939Z,99239.09
2022-08-24T10:42:44.710Z,99233.44
2022-08-24T10:48:15.351Z,99230.16
2022-08-24T10:53:29.587Z,99224.84
2022-08-24T10:58:56.095Z,99225.59
2022-08-24T11:04:05.178Z,99239.50
2022-08-24T11:09:19.680Z,99237.84
2022-08-24T11:14:32.494Z,99235.91
2022-08-24T11:19:38.309Z,99239.75
2022-08-24T11:24:51.457Z,99247.50
2022-08-24T11:30:06.339Z,99242.84
2022-08-24T11:35:21.243Z,99238.81
2022-08-24T11:40:32.795Z,99237.38
2022-08-24T11:45:44.724Z,99243.34
2022-08-24T11:50:58.897Z,99235.81
2022-08-24T11:56:18.689Z,99234.00
2022-08-24T12:01:30.607Z,99244.28
2022-08-24T12:06:49.170Z,99236.13
2022-08-24T12:12:06.794Z,99225.41
2022-08-24T12:17:19.563Z,99226.34
2022-08-24T12:22:25.687Z,99222.63
2022-08-24T12:27:37.970Z,99225.34
2022-08-24T12:32:48.334Z,99224.56
2022-08-24T12:38:00.935Z,99215.88
2022-08-24T12:43:11.895Z,99206.56
2022-08-24T12:48:26.932Z,99208.22
2022-08-24T12:53:47.737Z,99205.03
2022-08-24T12:59:06.200Z,99196.41
2022-08-24T13:04:20.647Z,99197.31
2022-08-24T13:09:37.703Z,99205.09
2022-08-24T13:14:54.041Z,99205.81
2022-08-24T13:20:23.580Z,99200.44
2022-08-24T13:25:46.453Z,99201.97
2022-08-24T13:31:26.790Z,99212.13
2022-08-24T13:37:14.397Z,99215.22
2022-08-24T13:42:32.153Z,99205.09
2022-08-24T13:47:52.520Z,99204.34
2022-08-24T13:53:16.539Z,99207.84
2022-08-24T13:58:38.460Z,99204.31
2022-08-24T14:04:11.309Z,99204.69
2022-08-24T14:09:37.464Z,99200.81
2022-08-24T14:15:09.623Z,99208.91
2022-08-24T14:20:22.473Z,99207.03
2022-08-24T14:25:33.932Z,99199.66
2022-08-24T14:30:50.258Z,99200.44
2022-08-24T14:36:21.365Z,99199.66
2022-08-24T14:41:47.903Z,99194.19
2022-08-24T14:47:05.960Z,99186.41
2022-08-24T14:52:23.355Z,99183.31
2022-08-24T14:58:00.618Z,99181.75
2022-08-24T15:03:31.144Z,99177.44
2022-08-24T15:08:43.201Z,99171.53
2022-08-24T15:13:56.997Z,99165.75
2022-08-24T15:19:11.602Z,99165.00
2022-08-24T15:24:37.431Z,99162.63
2022-08-24T15:29:54.638Z,99154.47
2022-08-24T15:35:01.206Z,99152.91
2022-08-24T15:40:15.339Z,99157.97
2022-08-24T15:45:23.224Z,99154.09
2022-08-24T15:50:32.085Z,99147.06
2022-08-24T15:55:40.865Z,99153.31
2022-08-24T16:01:01.026Z,99147.06
2022-08-24T16:06:27.016Z,99150.59
2022-08-24T16:11:38.426Z,99147.47
2022-08-24T16:16:48.409Z,99146.72
2022-08-24T16:22:01.086Z,99148.56
2022-08-24T16:27:09.986Z,99149.84
2022-08-24T16:32:21.732Z,99157.97
2022-08-24T16:37:32.111Z,99152.03
2022-08-24T16:42:38.518Z,99155.63
2022-08-24T16:47:47.099Z,99155.22
2022-08-24T16:52:52.666Z,99154.41
2022-08-24T16:58:01.675Z,99152.09
2022-08-24T17:03:12.918Z,99158.25
2022-08-24T17:08:20.374Z,99156.34
2022-08-24T17:13:48.274Z,99155.16
2022-08-24T17:18:57.890Z,99159.72
2022-08-24T17:24:04.000Z,99157.34
2022-08-24T17:29:12.318Z,99168.22
2022-08-24T17:34:27.757Z,99176.31
2022-08-24T17:39:34.133Z,99178.19
2022-08-24T17:44:39.552Z,99182.75
2022-08-24T17:49:47.234Z,99188.94
2022-08-24T17:54:52.113Z,99188.13
2022-08-24T17:59:57.493Z,99185.63
2022-08-24T18:05:05.550Z,99187.06
2022-08-24T18:10:13.516Z,99195.59
2022-08-24T18:15:18.380Z,99193.22
2022-08-24T18:20:31.202Z,99200.78
2022-08-24T18:25:40.375Z,99196.94
2022-08-24T18:30:46.753Z,99199.91
2022-08-24T18:35:56.095Z,99203.91
2022-08-24T18:41:06.982Z,99217.78
2022-08-24T18:46:13.921Z,99232.72
2022-08-24T18:56:32.886Z,99236.28
2022-08-24T19:01:59.501Z,99233.72
2022-08-24T19:07:07.277Z,99230.91
2022-08-24T19:12:13.146Z,99230.00
2022-08-24T19:17:18.598Z,99233.88
2022-08-24T19:22:26.958Z,99235.00
2022-08-24T19:27:31.977Z,99220.97
2022-08-24T19:32:39.618Z,99233.88
2022-08-24T19:37:49.796Z,99222.94
2022-08-24T19:42:58.452Z,99223.59
2022-08-24T19:48:04.431Z,99231.94
2022-08-24T19:53:12.606Z,99237.06
2022-08-24T19:58:25.361Z,99233.16
2022-08-24T20:03:33.762Z,99237.09
2022-08-24T20:08:41.654Z,99233.50
2022-08-24T20:13:50.286Z,99240.97
2022-08-24T20:18:56.198Z,99247.03
2022-08-24T20:24:04.537Z,99247.25
2022-08-24T20:29:15.298Z,99232.97
2022-08-24T20:34:20.885Z,99239.59
2022-08-24T20:39:29.590Z,99241.03
2022-08-24T20:44:34.713Z,99236.19
2022-08-24T20:49:40.202Z,99230.72
2022-08-24T20:54:48.092Z,99225.03
2022-08-24T20:59:52.986Z,99221.34
2022-08-24T21:04:57.887Z,99229.13
2022-08-24T21:10:09.731Z,99226.06
2022-08-24T21:15:15.511Z,99238.66
2022-08-24T21:20:22.043Z,99238.66
2022-08-24T21:25:29.953Z,99238.81
2022-08-24T21:30:35.079Z,99237.31
2022-08-24T21:35:41.430Z,99231.00
2022-08-24T21:40:49.578Z,99241.97
2022-08-24T21:45:55.224Z,99245.00
2022-08-24T21:51:00.303Z,99241.03
2022-08-24T21:56:08.185Z,99254.78
2022-08-24T22:01:14.953Z,99236.66
2022-08-24T22:06:20.074Z,99232.19
2022-08-24T22:11:27.614Z,99238.13
2022-08-24T22:16:33.311Z,99235.06
2022-08-24T22:21:47.829Z,99234.47
2022-08-24T22:26:55.880Z,99233.50
2022-08-24T22:32:00.801Z,99224.91
2022-08-24T22:37:05.874Z,99226.00
2022-08-24T22:42:13.610Z,99217.66
2022-08-24T22:47:19.410Z,99213.31
2022-08-24T22:52:25.200Z,99220.41
2022-08-24T22:57:33.232Z,99213.09
2022-08-24T23:02:38.557Z,99216.78
2022-08-24T23:07:43.508Z,99207.78
2022-08-24T23:12:51.009Z,99213.16
2022-08-24T23:17:55.923Z,99208.00
2022-08-24T23:23:00.856Z,99212.00
2022-08-24T23:28:08.606Z,99207.63
2022-08-24T23:33:13.459Z,99203.50
2022-08-24T23:38:18.367Z,99192.47
2022-08-24T23:43:25.849Z,99181.28
2022-08-24T23:48:30.832Z,99189.81
2022-08-24T23:53:36.021Z,99182.34
2022-08-24T23:58:44.424Z,99184.41
